sensor_id;sensor_type;location;lat;lon;timestamp;temperature;humidity
22682;DHT22;11508;50.856;4.380;2023-10-31T00:01:17;11.10;99.90
22682;DHT22;11508;50.856;4.380;2023-10-31T00:03:43;11.00;99.90
22682;DHT22;11508;50.856;4.380;2023-10-31T00:06:10;11.10;99.90
22682;DHT22;11508;50.856;4.380;2023-10-31T00:08:35;11.10;99.90
22682;DHT22;11508;50.856;4.380;2023-10-31T00:11:01;11.00;99.90
22682;DHT22;11508;50.856;4.380;2023-10-31T00:13:27;11.10;99.90
22682;DHT22;11508;50.856;4.380;2023-10-31T00:15:53;11.10;99.90
22682;DHT22;11508;50.856;4.380;2023-10-31T00:18:18;11.10;99.90
22682;DHT22;11508;50.856;4.380;2023-10-31T00:20:46;11.10;99.90
22682;DHT22;11508;50.856;4.380;2023-10-31T00:23:11;11.10;99.90
22682;DHT22;11508;50.856;4.380;2023-10-31T00:25:40;11.10;99.90
22682;DHT22;11508;50.856;4.380;2023-10-31T00:28:07;11.10;99.90
22682;DHT22;11508;50.856;4.380;2023-10-31T00:30:33;11.10;99.90
22682;DHT22;11508;50.856;4.380;2023-10-31T00:33:00;11.10;99.90
22682;DHT22;11508;50.856;4.380;2023-10-31T00:35:26;11.20;99.90
22682;DHT22;11508;50.856;4.380;2023-10-31T00:37:51;11.20;99.90
22682;DHT22;11508;50.856;4.380;2023-10-31T00:40:17;11.20;99.90
22682;DHT22;11508;50.856;4.380;2023-10-31T00:42:43;11.10;99.90
22682;DHT22;11508;50.856;4.380;2023-10-31T00:45:09;11.10;99.90
22682;DHT22;11508;50.856;4.380;2023-10-31T00:47:36;11.10;99.90
22682;DHT22;11508;50.856;4.380;2023-10-31T00:50:02;11.20;99.90
22682;DHT22;11508;50.856;4.380;2023-10-31T00:52:28;11.10;99.90
22682;DHT22;11508;50.856;4.380;2023-10-31T00:54:54;11.10;99.90
22682;DHT22;11508;50.856;4.380;2023-10-31T00:57:19;11.10;99.90
22682;DHT22;11508;50.856;4.380;2023-10-31T00:59:45;11.10;99.90
22682;DHT22;11508;50.856;4.380;2023-10-31T01:02:10;11.10;99.90
22682;DHT22;11508;50.856;4.380;2023-10-31T01:04:37;11.10;99.90
22682;DHT22;11508;50.856;4.380;2023-10-31T01:07:04;11.10;99.90
22682;DHT22;11508;50.856;4.380;2023-10-31T01:09:29;11.00;99.90
22682;DHT22;11508;50.856;4.380;2023-10-31T01:11:55;11.10;99.90
22682;DHT22;11508;50.856;4.380;2023-10-31T01:14:21;11.10;99.90
22682;DHT22;11508;50.856;4.380;2023-10-31T01:16:46;11.10;99.90
22682;DHT22;11508;50.856;4.380;2023-10-31T01:19:12;11.10;99.90
22682;DHT22;11508;50.856;4.380;2023-10-31T01:21:38;11.10;99.90
22682;DHT22;11508;50.856;4.380;2023-10-31T01:24:04;11.10;99.90
22682;DHT22;11508;50.856;4.380;2023-10-31T01:26:29;11.10;99.90
22682;DHT22;11508;50.856;4.380;2023-10-31T01:28:55;11.10;99.90
22682;DHT22;11508;50.856;4.380;2023-10-31T01:31:21;11.20;99.90
22682;DHT22;11508;50.856;4.380;2023-10-31T01:33:47;11.10;99.90
22682;DHT22;11508;50.856;4.380;2023-10-31T01:36:13;11.00;99.90
22682;DHT22;11508;50.856;4.380;2023-10-31T01:38:39;11.00;99.90
22682;DHT22;11508;50.856;4.380;2023-10-31T01:41:05;10.90;99.90
22682;DHT22;11508;50.856;4.380;2023-10-31T01:43:36;10.90;99.90
22682;DHT22;11508;50.856;4.380;2023-10-31T01:46:03;10.90;99.90
22682;DHT22;11508;50.856;4.380;2023-10-31T01:48:31;10.80;99.90
22682;DHT22;11508;50.856;4.380;2023-10-31T01:50:58;10.80;99.90
22682;DHT22;11508;50.856;4.380;2023-10-31T01:53:25;10.80;99.90
22682;DHT22;11508;50.856;4.380;2023-10-31T01:55:53;10.90;99.90
22682;DHT22;11508;50.856;4.380;2023-10-31T01:58:25;10.90;99.90
22682;DHT22;11508;50.856;4.380;2023-10-31T02:00:51;10.90;99.90
22682;DHT22;11508;50.856;4.380;2023-10-31T02:03:17;10.80;99.90
22682;DHT22;11508;50.856;4.380;2023-10-31T02:05:43;10.90;99.90
22682;DHT22;11508;50.856;4.380;2023-10-31T02:08:09;10.80;99.90
22682;DHT22;11508;50.856;4.380;2023-10-31T02:10:35;10.80;99.90
22682;DHT22;11508;50.856;4.380;2023-10-31T02:13:11;10.80;99.90
22682;DHT22;11508;50.856;4.380;2023-10-31T02:15:37;10.90;99.90
22682;DHT22;11508;50.856;4.380;2023-10-31T02:18:03;10.80;99.90
22682;DHT22;11508;50.856;4.380;2023-10-31T02:20:29;10.80;99.90
22682;DHT22;11508;50.856;4.380;2023-10-31T02:22:55;10.80;99.90
22682;DHT22;11508;50.856;4.380;2023-10-31T02:25:22;9.20;99.90
22682;DHT22;11508;50.856;4.380;2023-10-31T02:27:48;10.70;99.90
22682;DHT22;11508;50.856;4.380;2023-10-31T02:32:43;10.90;99.90
22682;DHT22;11508;50.856;4.380;2023-10-31T02:35:12;10.80;99.90
22682;DHT22;11508;50.856;4.380;2023-10-31T02:37:41;10.70;99.90
22682;DHT22;11508;50.856;4.380;2023-10-31T02:40:09;10.80;99.90
22682;DHT22;11508;50.856;4.380;2023-10-31T02:42:35;10.90;99.90
22682;DHT22;11508;50.856;4.380;2023-10-31T02:45:02;10.90;99.90
22682;DHT22;11508;50.856;4.380;2023-10-31T02:47:28;10.80;99.90
22682;DHT22;11508;50.856;4.380;2023-10-31T02:52:20;10.70;99.90
22682;DHT22;11508;50.856;4.380;2023-10-31T02:59:44;10.60;99.90
22682;DHT22;11508;50.856;4.380;2023-10-31T03:02:10;10.50;99.90
22682;DHT22;11508;50.856;4.380;2023-10-31T03:04:37;10.60;99.90
22682;DHT22;11508;50.856;4.380;2023-10-31T03:07:02;10.60;99.90
22682;DHT22;11508;50.856;4.380;2023-10-31T03:09:28;10.60;99.90
22682;DHT22;11508;50.856;4.380;2023-10-31T03:11:54;10.60;99.90
22682;DHT22;11508;50.856;4.380;2023-10-31T03:24:05;10.60;99.90
22682;DHT22;11508;50.856;4.380;2023-10-31T03:26:34;10.60;99.90
22682;DHT22;11508;50.856;4.380;2023-10-31T03:28:59;10.50;99.90
22682;DHT22;11508;50.856;4.380;2023-10-31T03:31:25;10.50;99.90
22682;DHT22;11508;50.856;4.380;2023-10-31T03:38:45;10.40;99.90
22682;DHT22;11508;50.856;4.380;2023-10-31T03:43:38;10.50;99.90
22682;DHT22;11508;50.856;4.380;2023-10-31T03:46:05;10.60;99.90
22682;DHT22;11508;50.856;4.380;2023-10-31T03:48:31;10.60;99.90
22682;DHT22;11508;50.856;4.380;2023-10-31T03:50:57;10.50;99.90
22682;DHT22;11508;50.856;4.380;2023-10-31T03:53:22;10.50;99.90
22682;DHT22;11508;50.856;4.380;2023-10-31T03:55:48;10.50;99.90
22682;DHT22;11508;50.856;4.380;2023-10-31T03:58:14;10.50;99.90
22682;DHT22;11508;50.856;4.380;2023-10-31T04:03:07;10.40;99.90
22682;DHT22;11508;50.856;4.380;2023-10-31T04:05:33;10.40;99.90
22682;DHT22;11508;50.856;4.380;2023-10-31T04:07:59;10.50;99.90
22682;DHT22;11508;50.856;4.380;2023-10-31T04:10:25;10.40;99.90
22682;DHT22;11508;50.856;4.380;2023-10-31T04:12:51;10.40;99.90
22682;DHT22;11508;50.856;4.380;2023-10-31T04:15:16;10.40;99.90
22682;DHT22;11508;50.856;4.380;2023-10-31T04:17:42;10.40;99.90
22682;DHT22;11508;50.856;4.380;2023-10-31T04:20:08;10.40;99.90
22682;DHT22;11508;50.856;4.380;2023-10-31T04:22:34;10.40;99.90
22682;DHT22;11508;50.856;4.380;2023-10-31T04:24:59;10.40;99.90
22682;DHT22;11508;50.856;4.380;2023-10-31T04:27:25;10.40;99.90
22682;DHT22;11508;50.856;4.380;2023-10-31T04:29:51;10.30;99.90
22682;DHT22;11508;50.856;4.380;2023-10-31T04:32:16;10.30;99.90
22682;DHT22;11508;50.856;4.380;2023-10-31T04:34:43;10.40;99.90
22682;DHT22;11508;50.856;4.380;2023-10-31T04:37:09;10.30;99.90
22682;DHT22;11508;50.856;4.380;2023-10-31T04:39:36;10.30;99.90
22682;DHT22;11508;50.856;4.380;2023-10-31T04:42:02;10.40;99.90
22682;DHT22;11508;50.856;4.380;2023-10-31T04:44:28;10.40;99.90
22682;DHT22;11508;50.856;4.380;2023-10-31T04:49:20;10.30;99.90
22682;DHT22;11508;50.856;4.380;2023-10-31T04:51:46;10.30;99.90
22682;DHT22;11508;50.856;4.380;2023-10-31T04:54:11;10.30;99.90
22682;DHT22;11508;50.856;4.380;2023-10-31T04:56:37;10.40;99.90
22682;DHT22;11508;50.856;4.380;2023-10-31T04:59:03;10.40;99.90
22682;DHT22;11508;50.856;4.380;2023-10-31T05:01:29;10.30;99.90
22682;DHT22;11508;50.856;4.380;2023-10-31T05:03:54;10.40;99.90
22682;DHT22;11508;50.856;4.380;2023-10-31T05:06:21;10.40;99.90
22682;DHT22;11508;50.856;4.380;2023-10-31T05:08:48;10.40;99.90
22682;DHT22;11508;50.856;4.380;2023-10-31T05:11:16;10.40;99.90
22682;DHT22;11508;50.856;4.380;2023-10-31T05:13:41;10.40;99.90
22682;DHT22;11508;50.856;4.380;2023-10-31T05:16:07;10.40;99.90
22682;DHT22;11508;50.856;4.380;2023-10-31T05:18:36;10.50;99.90
22682;DHT22;11508;50.856;4.380;2023-10-31T05:21:02;10.50;99.90
22682;DHT22;11508;50.856;4.380;2023-10-31T05:23:28;10.40;99.90
22682;DHT22;11508;50.856;4.380;2023-10-31T05:28:21;10.60;99.90
22682;DHT22;11508;50.856;4.380;2023-10-31T05:33:17;10.50;99.90
22682;DHT22;11508;50.856;4.380;2023-10-31T05:40:36;10.70;99.90
22682;DHT22;11508;50.856;4.380;2023-10-31T05:43:03;11.40;99.90
22682;DHT22;11508;50.856;4.380;2023-10-31T05:47:55;10.60;99.90
22682;DHT22;11508;50.856;4.380;2023-10-31T05:52:47;10.60;99.90
22682;DHT22;11508;50.856;4.380;2023-10-31T05:55:16;10.60;99.90
22682;DHT22;11508;50.856;4.380;2023-10-31T06:00:09;10.60;99.90
22682;DHT22;11508;50.856;4.380;2023-10-31T06:02:34;10.60;99.90
22682;DHT22;11508;50.856;4.380;2023-10-31T06:05:00;10.70;99.90
22682;DHT22;11508;50.856;4.380;2023-10-31T06:07:26;9.00;99.90
22682;DHT22;11508;50.856;4.380;2023-10-31T06:09:52;10.70;99.90
22682;DHT22;11508;50.856;4.380;2023-10-31T06:24:36;10.70;99.90
22682;DHT22;11508;50.856;4.380;2023-10-31T06:32:00;10.60;99.90
22682;DHT22;11508;50.856;4.380;2023-10-31T06:41:45;10.60;99.90
22682;DHT22;11508;50.856;4.380;2023-10-31T06:46:38;10.40;99.90
22682;DHT22;11508;50.856;4.380;2023-10-31T06:56:25;10.40;99.90
22682;DHT22;11508;50.856;4.380;2023-10-31T07:03:47;10.50;99.90
22682;DHT22;11508;50.856;4.380;2023-10-31T07:08:46;10.50;99.90
22682;DHT22;11508;50.856;4.380;2023-10-31T07:11:12;9.80;99.90
22682;DHT22;11508;50.856;4.380;2023-10-31T07:16:07;10.40;99.90
22682;DHT22;11508;50.856;4.380;2023-10-31T07:18:33;10.20;99.90
22682;DHT22;11508;50.856;4.380;2023-10-31T07:23:24;10.40;99.90
22682;DHT22;11508;50.856;4.380;2023-10-31T07:25:50;10.60;99.90
22682;DHT22;11508;50.856;4.380;2023-10-31T07:30:45;10.50;99.90
22682;DHT22;11508;50.856;4.380;2023-10-31T07:40:33;10.60;99.90
22682;DHT22;11508;50.856;4.380;2023-10-31T07:50:17;10.80;99.90
22682;DHT22;11508;50.856;4.380;2023-10-31T07:55:12;10.90;99.90
22682;DHT22;11508;50.856;4.380;2023-10-31T07:57:37;10.80;99.90
22682;DHT22;11508;50.856;4.380;2023-10-31T08:00:04;10.90;99.90
22682;DHT22;11508;50.856;4.380;2023-10-31T08:02:32;10.90;99.90
22682;DHT22;11508;50.856;4.380;2023-10-31T08:04:59;10.80;99.90
22682;DHT22;11508;50.856;4.380;2023-10-31T08:07:26;10.60;99.90
22682;DHT22;11508;50.856;4.380;2023-10-31T08:09:55;10.60;99.90
22682;DHT22;11508;50.856;4.380;2023-10-31T08:12:22;10.70;99.90
22682;DHT22;11508;50.856;4.380;2023-10-31T08:14:48;10.70;99.90
22682;DHT22;11508;50.856;4.380;2023-10-31T08:19:40;10.90;99.90
22682;DHT22;11508;50.856;4.380;2023-10-31T08:22:05;8.60;99.90
22682;DHT22;11508;50.856;4.380;2023-10-31T08:24:31;11.00;99.90
22682;DHT22;11508;50.856;4.380;2023-10-31T08:27:01;10.90;99.90
22682;DHT22;11508;50.856;4.380;2023-10-31T08:29:27;10.80;99.90
22682;DHT22;11508;50.856;4.380;2023-10-31T08:31:53;10.80;99.90
22682;DHT22;11508;50.856;4.380;2023-10-31T08:34:19;10.90;99.90
22682;DHT22;11508;50.856;4.380;2023-10-31T08:36:44;10.90;99.90
22682;DHT22;11508;50.856;4.380;2023-10-31T08:39:10;10.80;99.90
22682;DHT22;11508;50.856;4.380;2023-10-31T08:41:36;10.80;99.90
22682;DHT22;11508;50.856;4.380;2023-10-31T08:44:03;10.90;99.90
22682;DHT22;11508;50.856;4.380;2023-10-31T08:46:28;10.90;99.90
22682;DHT22;11508;50.856;4.380;2023-10-31T08:48:54;11.00;99.90
22682;DHT22;11508;50.856;4.380;2023-10-31T08:51:20;10.90;99.90
22682;DHT22;11508;50.856;4.380;2023-10-31T08:53:45;10.80;99.90
22682;DHT22;11508;50.856;4.380;2023-10-31T08:56:11;10.90;99.90
22682;DHT22;11508;50.856;4.380;2023-10-31T08:58:36;10.90;99.90
22682;DHT22;11508;50.856;4.380;2023-10-31T09:01:02;11.00;99.90
22682;DHT22;11508;50.856;4.380;2023-10-31T09:03:28;11.10;99.90
22682;DHT22;11508;50.856;4.380;2023-10-31T09:05:54;11.30;99.90
22682;DHT22;11508;50.856;4.380;2023-10-31T09:08:19;11.30;99.90
22682;DHT22;11508;50.856;4.380;2023-10-31T09:10:45;11.50;99.90
22682;DHT22;11508;50.856;4.380;2023-10-31T09:13:12;11.70;99.90
22682;DHT22;11508;50.856;4.380;2023-10-31T09:15:38;11.70;99.90
22682;DHT22;11508;50.856;4.380;2023-10-31T09:18:04;12.00;99.90
22682;DHT22;11508;50.856;4.380;2023-10-31T09:20:30;11.90;99.90
22682;DHT22;11508;50.856;4.380;2023-10-31T09:22:55;12.00;99.90
22682;DHT22;11508;50.856;4.380;2023-10-31T09:25:21;11.80;99.90
22682;DHT22;11508;50.856;4.380;2023-10-31T09:27:47;11.70;99.90
22682;DHT22;11508;50.856;4.380;2023-10-31T09:30:13;11.70;99.90
22682;DHT22;11508;50.856;4.380;2023-10-31T09:32:38;11.70;99.90
22682;DHT22;11508;50.856;4.380;2023-10-31T09:35:04;11.60;99.90
22682;DHT22;11508;50.856;4.380;2023-10-31T09:37:31;11.60;99.90
22682;DHT22;11508;50.856;4.380;2023-10-31T09:39:57;11.60;99.90
22682;DHT22;11508;50.856;4.380;2023-10-31T09:42:22;11.70;99.90
22682;DHT22;11508;50.856;4.380;2023-10-31T09:44:48;11.70;99.90
22682;DHT22;11508;50.856;4.380;2023-10-31T09:47:15;11.40;99.90
22682;DHT22;11508;50.856;4.380;2023-10-31T09:49:41;11.40;99.90
22682;DHT22;11508;50.856;4.380;2023-10-31T09:52:07;11.30;99.90
22682;DHT22;11508;50.856;4.380;2023-10-31T09:54:33;11.40;99.90
22682;DHT22;11508;50.856;4.380;2023-10-31T09:57:00;11.40;99.90
22682;DHT22;11508;50.856;4.380;2023-10-31T09:59:25;11.30;99.90
22682;DHT22;11508;50.856;4.380;2023-10-31T10:01:52;11.20;99.90
22682;DHT22;11508;50.856;4.380;2023-10-31T10:04:17;11.30;99.90
22682;DHT22;11508;50.856;4.380;2023-10-31T10:06:51;11.40;99.90
22682;DHT22;11508;50.856;4.380;2023-10-31T10:14:11;11.60;99.90
22682;DHT22;11508;50.856;4.380;2023-10-31T10:19:20;11.50;99.90
22682;DHT22;11508;50.856;4.380;2023-10-31T10:21:52;11.60;99.90
22682;DHT22;11508;50.856;4.380;2023-10-31T10:24:19;11.60;99.90
22682;DHT22;11508;50.856;4.380;2023-10-31T10:26:49;11.90;99.90
22682;DHT22;11508;50.856;4.380;2023-10-31T10:31:41;11.70;99.90
22682;DHT22;11508;50.856;4.380;2023-10-31T10:34:08;15.40;99.90
22682;DHT22;11508;50.856;4.380;2023-10-31T10:36:35;11.80;99.90
22682;DHT22;11508;50.856;4.380;2023-10-31T10:41:27;11.70;99.90
22682;DHT22;11508;50.856;4.380;2023-10-31T10:44:05;11.70;99.90
22682;DHT22;11508;50.856;4.380;2023-10-31T10:46:36;11.70;99.90
22682;DHT22;11508;50.856;4.380;2023-10-31T10:49:05;11.80;99.90
22682;DHT22;11508;50.856;4.380;2023-10-31T10:51:58;11.60;99.90
22682;DHT22;11508;50.856;4.380;2023-10-31T10:54:32;11.60;99.90
22682;DHT22;11508;50.856;4.380;2023-10-31T10:57:28;11.70;99.90
22682;DHT22;11508;50.856;4.380;2023-10-31T11:00:01;11.60;99.90
22682;DHT22;11508;50.856;4.380;2023-10-31T11:04:54;11.60;99.90
22682;DHT22;11508;50.856;4.380;2023-10-31T11:07:21;11.50;99.90
22682;DHT22;11508;50.856;4.380;2023-10-31T11:12:15;10.50;99.90
22682;DHT22;11508;50.856;4.380;2023-10-31T11:14:42;11.50;99.90
22682;DHT22;11508;50.856;4.380;2023-10-31T11:17:31;11.70;99.90
22682;DHT22;11508;50.856;4.380;2023-10-31T11:19:58;11.70;99.90
22682;DHT22;11508;50.856;4.380;2023-10-31T11:22:24;11.70;99.90
22682;DHT22;11508;50.856;4.380;2023-10-31T11:24:50;11.70;99.90
22682;DHT22;11508;50.856;4.380;2023-10-31T11:27:17;11.90;99.90
22682;DHT22;11508;50.856;4.380;2023-10-31T11:29:45;11.60;99.90
22682;DHT22;11508;50.856;4.380;2023-10-31T11:32:22;11.30;99.90
22682;DHT22;11508;50.856;4.380;2023-10-31T11:37:48;11.40;99.90
22682;DHT22;11508;50.856;4.380;2023-10-31T11:40:22;11.30;99.90
22682;DHT22;11508;50.856;4.380;2023-10-31T11:43:12;11.30;99.90
22682;DHT22;11508;50.856;4.380;2023-10-31T11:46:03;14.40;99.90
22682;DHT22;11508;50.856;4.380;2023-10-31T11:49:11;11.30;99.90
22682;DHT22;11508;50.856;4.380;2023-10-31T11:54:33;11.30;99.90
22682;DHT22;11508;50.856;4.380;2023-10-31T11:57:46;11.70;99.90
22682;DHT22;11508;50.856;4.380;2023-10-31T12:00:33;11.40;99.90
22682;DHT22;11508;50.856;4.380;2023-10-31T12:03:08;11.50;99.90
22682;DHT22;11508;50.856;4.380;2023-10-31T12:06:44;11.50;99.90
22682;DHT22;11508;50.856;4.380;2023-10-31T12:09:13;11.40;99.90
22682;DHT22;11508;50.856;4.380;2023-10-31T12:12:04;11.40;99.90
22682;DHT22;11508;50.856;4.380;2023-10-31T12:17:40;11.30;99.90
22682;DHT22;11508;50.856;4.380;2023-10-31T12:36:36;11.40;99.90
22682;DHT22;11508;50.856;4.380;2023-10-31T12:43:38;11.50;99.90
22682;DHT22;11508;50.856;4.380;2023-10-31T12:49:39;11.60;99.90
22682;DHT22;11508;50.856;4.380;2023-10-31T12:52:15;11.60;99.90
22682;DHT22;11508;50.856;4.380;2023-10-31T12:55:14;11.60;99.90
22682;DHT22;11508;50.856;4.380;2023-10-31T12:58:00;11.60;99.90
22682;DHT22;11508;50.856;4.380;2023-10-31T13:00:33;11.80;99.90
22682;DHT22;11508;50.856;4.380;2023-10-31T13:03:16;11.70;99.90
22682;DHT22;11508;50.856;4.380;2023-10-31T13:05:52;11.70;99.90
22682;DHT22;11508;50.856;4.380;2023-10-31T13:08:38;11.70;99.90
22682;DHT22;11508;50.856;4.380;2023-10-31T13:11:16;11.60;99.90
22682;DHT22;11508;50.856;4.380;2023-10-31T13:13:47;13.00;99.90
22682;DHT22;11508;50.856;4.380;2023-10-31T13:16:49;11.60;99.90
22682;DHT22;11508;50.856;4.380;2023-10-31T13:19:31;11.60;99.90
22682;DHT22;11508;50.856;4.380;2023-10-31T13:22:00;14.20;99.90
22682;DHT22;11508;50.856;4.380;2023-10-31T13:25:20;11.40;99.90
22682;DHT22;11508;50.856;4.380;2023-10-31T13:31:39;13.20;99.90
22682;DHT22;11508;50.856;4.380;2023-10-31T13:34:43;11.60;99.90
22682;DHT22;11508;50.856;4.380;2023-10-31T13:40:14;11.60;99.90
22682;DHT22;11508;50.856;4.380;2023-10-31T13:43:32;11.60;99.90
22682;DHT22;11508;50.856;4.380;2023-10-31T13:46:06;11.70;99.90
22682;DHT22;11508;50.856;4.380;2023-10-31T13:52:00;11.70;99.90
22682;DHT22;11508;50.856;4.380;2023-10-31T13:54:59;11.70;99.90
22682;DHT22;11508;50.856;4.380;2023-10-31T13:57:42;11.80;99.90
22682;DHT22;11508;50.856;4.380;2023-10-31T14:00:37;11.80;99.90
22682;DHT22;11508;50.856;4.380;2023-10-31T14:03:13;12.00;99.90
22682;DHT22;11508;50.856;4.380;2023-10-31T14:06:13;12.00;99.90
22682;DHT22;11508;50.856;4.380;2023-10-31T14:09:05;16.80;99.90
22682;DHT22;11508;50.856;4.380;2023-10-31T14:12:28;12.20;99.90
22682;DHT22;11508;50.856;4.380;2023-10-31T14:15:52;9.50;99.90
22682;DHT22;11508;50.856;4.380;2023-10-31T14:21:08;12.30;99.90
22682;DHT22;11508;50.856;4.380;2023-10-31T14:23:42;12.40;99.90
22682;DHT22;11508;50.856;4.380;2023-10-31T14:26:48;12.40;99.90
22682;DHT22;11508;50.856;4.380;2023-10-31T14:33:03;12.50;99.90
22682;DHT22;11508;50.856;4.380;2023-10-31T14:36:09;12.40;99.90
22682;DHT22;11508;50.856;4.380;2023-10-31T14:38:58;12.50;99.90
22682;DHT22;11508;50.856;4.380;2023-10-31T14:41:51;12.50;99.90
22682;DHT22;11508;50.856;4.380;2023-10-31T14:44:52;9.80;99.90
22682;DHT22;11508;50.856;4.380;2023-10-31T14:47:47;12.60;99.90
22682;DHT22;11508;50.856;4.380;2023-10-31T14:50:29;12.60;99.90
22682;DHT22;11508;50.856;4.380;2023-10-31T14:53:02;12.70;99.90
22682;DHT22;11508;50.856;4.380;2023-10-31T14:55:36;12.70;99.90
22682;DHT22;11508;50.856;4.380;2023-10-31T14:58:41;13.10;99.90
22682;DHT22;11508;50.856;4.380;2023-10-31T15:01:36;12.50;99.90
22682;DHT22;11508;50.856;4.380;2023-10-31T15:04:18;12.40;99.90
22682;DHT22;11508;50.856;4.380;2023-10-31T15:06:47;12.50;99.90
22682;DHT22;11508;50.856;4.380;2023-10-31T15:09:45;12.50;99.90
22682;DHT22;11508;50.856;4.380;2023-10-31T15:12:35;12.50;99.90
22682;DHT22;11508;50.856;4.380;2023-10-31T15:15:03;12.60;99.90
22682;DHT22;11508;50.856;4.380;2023-10-31T15:20:32;12.70;99.90
22682;DHT22;11508;50.856;4.380;2023-10-31T15:23:20;12.40;99.90
22682;DHT22;11508;50.856;4.380;2023-10-31T15:26:16;14.10;99.90
22682;DHT22;11508;50.856;4.380;2023-10-31T15:29:00;11.90;99.90
22682;DHT22;11508;50.856;4.380;2023-10-31T15:31:47;12.60;99.90
22682;DHT22;11508;50.856;4.380;2023-10-31T15:34:15;12.50;99.90
22682;DHT22;11508;50.856;4.380;2023-10-31T15:36:47;12.50;99.90
22682;DHT22;11508;50.856;4.380;2023-10-31T15:39:12;12.50;99.90
22682;DHT22;11508;50.856;4.380;2023-10-31T15:41:40;12.50;99.90
22682;DHT22;11508;50.856;4.380;2023-10-31T15:44:29;12.50;99.90
22682;DHT22;11508;50.856;4.380;2023-10-31T15:46:57;12.50;99.90
22682;DHT22;11508;50.856;4.380;2023-10-31T15:49:25;12.50;99.90
22682;DHT22;11508;50.856;4.380;2023-10-31T15:52:19;13.40;99.90
22682;DHT22;11508;50.856;4.380;2023-10-31T15:54:55;12.60;99.90
22682;DHT22;11508;50.856;4.380;2023-10-31T15:57:32;12.60;99.90
22682;DHT22;11508;50.856;4.380;2023-10-31T16:03:07;12.50;99.90
22682;DHT22;11508;50.856;4.380;2023-10-31T16:05:34;12.50;99.90
22682;DHT22;11508;50.856;4.380;2023-10-31T16:08:41;12.60;99.90
22682;DHT22;11508;50.856;4.380;2023-10-31T16:11:55;12.80;99.90
22682;DHT22;11508;50.856;4.380;2023-10-31T16:14:39;12.70;99.90
22682;DHT22;11508;50.856;4.380;2023-10-31T16:17:52;12.70;99.90
22682;DHT22;11508;50.856;4.380;2023-10-31T16:20:22;12.70;99.90
22682;DHT22;11508;50.856;4.380;2023-10-31T16:23:24;12.70;99.90
22682;DHT22;11508;50.856;4.380;2023-10-31T16:25:59;12.70;99.90
22682;DHT22;11508;50.856;4.380;2023-10-31T16:31:44;12.70;99.90
22682;DHT22;11508;50.856;4.380;2023-10-31T16:38:16;12.50;99.90
22682;DHT22;11508;50.856;4.380;2023-10-31T16:40:54;12.60;99.90
22682;DHT22;11508;50.856;4.380;2023-10-31T16:47:04;12.60;99.90
22682;DHT22;11508;50.856;4.380;2023-10-31T16:50:24;12.80;99.90
22682;DHT22;11508;50.856;4.380;2023-10-31T16:53:45;12.60;99.90
22682;DHT22;11508;50.856;4.380;2023-10-31T17:07:27;12.50;99.90
22682;DHT22;11508;50.856;4.380;2023-10-31T17:14:52;12.70;99.90
22682;DHT22;11508;50.856;4.380;2023-10-31T17:24:42;12.70;99.90
22682;DHT22;11508;50.856;4.380;2023-10-31T18:04:19;12.70;99.90
22682;DHT22;11508;50.856;4.380;2023-10-31T18:53:39;12.80;99.90
22682;DHT22;11508;50.856;4.380;2023-10-31T19:00:58;12.70;99.90
22682;DHT22;11508;50.856;4.380;2023-10-31T19:05:50;12.70;99.90
22682;DHT22;11508;50.856;4.380;2023-10-31T19:08:16;12.70;99.90
22682;DHT22;11508;50.856;4.380;2023-10-31T19:10:42;12.70;99.90
22682;DHT22;11508;50.856;4.380;2023-10-31T19:13:15;12.60;99.90
22682;DHT22;11508;50.856;4.380;2023-10-31T19:15:42;12.70;99.90
22682;DHT22;11508;50.856;4.380;2023-10-31T19:18:08;12.70;99.90
22682;DHT22;11508;50.856;4.380;2023-10-31T19:20:34;11.50;99.90
22682;DHT22;11508;50.856;4.380;2023-10-31T19:23:00;12.70;99.90
22682;DHT22;11508;50.856;4.380;2023-10-31T19:25:28;12.80;99.90
22682;DHT22;11508;50.856;4.380;2023-10-31T19:27:54;12.70;99.90
22682;DHT22;11508;50.856;4.380;2023-10-31T19:40:15;12.70;99.90
22682;DHT22;11508;50.856;4.380;2023-10-31T19:50:03;13.00;99.90
22682;DHT22;11508;50.856;4.380;2023-10-31T19:57:26;12.80;99.90
22682;DHT22;11508;50.856;4.380;2023-10-31T20:07:16;12.90;99.90
22682;DHT22;11508;50.856;4.380;2023-10-31T20:22:08;12.80;99.90
22682;DHT22;11508;50.856;4.380;2023-10-31T20:51:32;12.80;99.90
22682;DHT22;11508;50.856;4.380;2023-10-31T21:31:14;12.90;99.90
